Time;durP1;ratioP1;P1;durP2;ratioP2;P2;SDS_P1;SDS_P2;PMS_P1;PMS_P2;Temp;Humidity;BMP_temperature;BMP_pressure;BME280_temperature;BME280_humidity;BME280_pressure;Samples;Min_cycle;Max_cycle;Signal;HPM_P1;HPM_P2
2021/01/26 00:02:20;;;;;;;12.93;8.23;;;1.50;95.00;;;;;;5124509;27;27587;-50
2021/01/26 00:05:05;;;;;;;12.10;7.47;;;1.50;95.00;;;;;;5125024;27;27327;-51
2021/01/26 00:07:49;;;;;;;12.88;8.73;;;1.50;94.90;;;;;;5124680;27;27380;-50
2021/01/26 00:10:34;;;;;;;12.13;8.02;;;1.40;94.80;;;;;;5124105;27;27585;-48
2021/01/26 00:13:19;;;;;;;12.00;7.65;;;1.40;94.80;;;;;;5124986;27;27389;-45
2021/01/26 00:16:04;;;;;;;12.45;8.40;;;1.40;94.80;;;;;;5124801;27;27852;-49
2021/01/26 00:18:49;;;;;;;13.27;7.95;;;1.40;94.70;;;;;;5124903;27;27327;-49
2021/01/26 00:21:35;;;;;;;12.48;9.07;;;1.40;94.70;;;;;;5126215;27;27340;-46
2021/01/26 00:24:19;;;;;;;12.38;8.57;;;1.40;94.70;;;;;;5128502;27;27420;-49
2021/01/26 00:27:04;;;;;;;17.10;9.82;;;1.40;94.60;;;;;;5127900;27;27983;-49
2021/01/26 00:29:48;;;;;;;14.50;9.20;;;1.30;94.50;;;;;;5127896;27;27588;-49
2021/01/26 00:32:33;;;;;;;14.25;8.80;;;1.30;94.50;;;;;;5124299;27;27332;-49
2021/01/26 00:35:19;;;;;;;12.00;8.70;;;1.30;94.40;;;;;;5127969;27;27453;-50
2021/01/26 00:38:03;;;;;;;12.88;8.05;;;1.30;94.40;;;;;;5127998;27;27382;-48
2021/01/26 00:40:48;;;;;;;14.32;9.38;;;1.30;94.30;;;;;;5127138;27;27448;-50
2021/01/26 00:43:33;;;;;;;12.23;7.90;;;1.30;94.30;;;;;;5128194;27;27384;-50
2021/01/26 00:46:17;;;;;;;11.90;9.48;;;1.20;94.20;;;;;;5128025;27;27522;-49
2021/01/26 00:49:02;;;;;;;13.80;8.63;;;1.20;94.10;;;;;;5128042;27;28012;-48
2021/01/26 00:51:46;;;;;;;15.82;9.70;;;1.20;94.10;;;;;;5127997;27;27418;-49
2021/01/26 00:54:32;;;;;;;13.82;8.90;;;1.20;94.10;;;;;;5128127;27;27431;-49
2021/01/26 00:57:19;;;;;;;16.33;10.40;;;1.20;94.00;;;;;;5123861;27;27407;-49
2021/01/26 01:00:06;;;;;;;12.70;8.73;;;1.10;93.90;;;;;;5126859;27;27894;-49
2021/01/26 01:02:50;;;;;;;14.75;9.10;;;1.10;94.20;;;;;;5127551;27;27438;-50
2021/01/26 01:05:35;;;;;;;12.60;8.18;;;1.10;93.80;;;;;;5124284;27;27373;-49
2021/01/26 01:08:19;;;;;;;13.15;8.93;;;1.10;93.80;;;;;;5127736;27;27327;-50
2021/01/26 01:11:04;;;;;;;14.45;9.55;;;1.10;93.80;;;;;;5127788;27;27377;-49
2021/01/26 01:13:48;;;;;;;14.27;8.82;;;1.00;93.70;;;;;;5127360;27;27475;-46
2021/01/26 01:16:33;;;;;;;14.32;9.60;;;1.00;93.70;;;;;;5127750;27;27408;-47
2021/01/26 01:19:17;;;;;;;14.43;9.90;;;1.00;93.60;;;;;;5127648;27;27440;-45
2021/01/26 01:22:02;;;;;;;13.95;8.80;;;1.00;93.50;;;;;;5127534;27;27933;-49
2021/01/26 01:24:46;;;;;;;13.15;9.45;;;1.00;93.50;;;;;;5126695;27;27630;-49
2021/01/26 01:27:31;;;;;;;14.35;9.57;;;0.90;93.40;;;;;;5127238;27;26990;-50
2021/01/26 01:30:18;;;;;;;16.00;10.30;;;0.90;93.40;;;;;;5127096;27;27467;-49
2021/01/26 01:33:03;;;;;;;16.55;10.00;;;0.90;93.30;;;;;;5125804;27;27910;-53
2021/01/26 01:35:48;;;;;;;15.57;9.45;;;0.80;93.20;;;;;;5127027;27;27338;-50
2021/01/26 01:38:33;;;;;;;14.73;9.15;;;0.80;93.10;;;;;;5127444;27;27355;-51
2021/01/26 01:41:17;;;;;;;17.42;10.23;;;0.80;93.00;;;;;;5127295;27;27497;-48
2021/01/26 01:44:04;;;;;;;16.08;10.38;;;0.80;93.00;;;;;;5126895;27;27478;-49
2021/01/26 01:46:52;;;;;;;16.25;10.60;;;0.80;92.90;;;;;;5126904;27;27331;-49
2021/01/26 01:49:42;;;;;;;17.08;10.85;;;0.70;92.90;;;;;;5127115;27;27383;-49
2021/01/26 01:52:30;;;;;;;14.32;10.18;;;0.70;92.80;;;;;;5126242;27;27426;-46
2021/01/26 01:55:18;;;;;;;14.27;9.48;;;0.70;92.80;;;;;;5125874;27;27352;-52
2021/01/26 01:58:10;;;;;;;17.27;9.98;;;0.70;92.80;;;;;;5126168;27;27465;-49
2021/01/26 02:00:59;;;;;;;16.48;10.23;;;0.70;92.80;;;;;;5126948;27;27356;-50
2021/01/26 02:04:05;;;;;;;18.20;10.52;;;0.60;92.80;;;;;;5126174;27;27501;-49
2021/01/26 02:06:54;;;;;;;18.08;10.93;;;0.70;93.00;;;;;;5126615;27;27394;-49
2021/01/26 02:09:39;;;;;;;18.60;10.73;;;0.60;93.00;;;;;;5126068;27;27363;-50
2021/01/26 02:12:23;;;;;;;17.00;9.98;;;0.60;93.10;;;;;;5126776;27;27304;-50
2021/01/26 02:15:08;;;;;;;19.20;10.73;;;0.60;93.10;;;;;;5126616;27;27335;-53
2021/01/26 02:18:05;;;;;;;15.38;9.70;;;0.60;93.20;;;;;;5125288;27;27950;-53
2021/01/26 02:21:19;;;;;;;16.48;9.73;;;0.60;93.20;;;;;;5126369;27;27382;-50
2021/01/26 02:24:18;;;;;;;14.63;9.20;;;0.60;93.30;;;;;;5124847;27;27426;-46
2021/01/26 02:27:21;;;;;;;13.82;9.05;;;0.60;93.30;;;;;;5126035;27;27337;-50
2021/01/26 02:30:24;;;;;;;15.65;10.20;;;0.60;93.30;;;;;;5126436;27;27361;-50
2021/01/26 02:33:24;;;;;;;17.50;9.00;;;0.60;93.30;;;;;;5126381;27;27427;-54
2021/01/26 02:36:50;;;;;;;13.05;8.43;;;0.50;93.20;;;;;;5107619;27;27456;-50
2021/01/26 02:39:47;;;;;;;15.07;9.68;;;0.50;93.20;;;;;;5109775;27;27550;-49
2021/01/26 02:43:10;;;;;;;13.73;8.88;;;0.50;93.20;;;;;;5125995;27;27464;-50
2021/01/26 02:46:15;;;;;;;15.02;8.90;;;0.50;93.20;;;;;;5122484;27;27450;-52
2021/01/26 02:49:05;;;;;;;13.20;7.88;;;0.50;93.20;;;;;;5126211;27;27448;-54
2021/01/26 02:51:59;;;;;;;17.90;10.27;;;0.50;93.10;;;;;;5126122;27;27322;-53
2021/01/26 02:55:10;;;;;;;15.07;9.32;;;0.50;93.10;;;;;;5125732;27;27382;-52
2021/01/26 02:58:11;;;;;;;14.13;9.38;;;0.50;93.10;;;;;;5125706;27;27455;-49
2021/01/26 03:00:58;;;;;;;15.65;9.73;;;0.50;93.10;;;;;;5112940;27;27414;-49
2021/01/26 03:03:55;;;;;;;15.73;9.45;;;0.50;93.10;;;;;;5110885;27;27469;-45
2021/01/26 03:06:41;;;;;;;15.05;9.07;;;0.50;93.10;;;;;;5110447;27;27967;-50
2021/01/26 03:09:29;;;;;;;15.00;9.20;;;0.50;93.10;;;;;;5124370;27;27414;-50
2021/01/26 03:12:25;;;;;;;16.45;9.85;;;0.50;93.20;;;;;;5110761;27;27366;-49
2021/01/26 03:15:14;;;;;;;13.02;8.98;;;0.50;93.30;;;;;;5121727;27;27405;-49
2021/01/26 03:18:02;;;;;;;14.88;9.02;;;0.50;93.30;;;;;;5125368;27;27506;-50
2021/01/26 03:20:51;;;;;;;14.82;8.50;;;0.50;93.40;;;;;;5125394;27;27424;-49
2021/01/26 03:23:41;;;;;;;16.00;9.75;;;0.50;93.40;;;;;;5125463;27;27405;-48
2021/01/26 03:26:25;;;;;;;17.77;9.63;;;0.50;93.40;;;;;;5124729;27;27520;-48
2021/01/26 03:29:10;;;;;;;16.23;8.38;;;0.50;93.40;;;;;;5124789;27;27423;-50
2021/01/26 03:31:54;;;;;;;13.80;8.50;;;0.50;93.40;;;;;;5110200;27;27401;-49
2021/01/26 03:34:39;;;;;;;16.17;8.77;;;0.50;93.40;;;;;;5092597;27;27426;-48
2021/01/26 03:37:23;;;;;;;14.65;8.98;;;0.50;93.50;;;;;;5124701;27;27540;-48
2021/01/26 03:40:08;;;;;;;14.93;9.13;;;0.50;93.50;;;;;;5125114;27;27342;-49
2021/01/26 03:42:56;;;;;;;14.40;8.48;;;0.50;93.50;;;;;;5124522;27;27457;-46
2021/01/26 03:45:41;;;;;;;15.45;8.45;;;0.50;93.50;;;;;;5125371;27;27485;-49
2021/01/26 03:48:54;;;;;;;15.07;8.25;;;0.50;93.60;;;;;;5125002;27;27414;-49
2021/01/26 03:51:53;;;;;;;12.10;7.80;;;0.50;93.80;;;;;;5124290;27;27473;-49
2021/01/26 03:54:49;;;;;;;14.68;9.15;;;0.50;93.80;;;;;;5125148;27;27495;-50
2021/01/26 03:57:55;;;;;;;15.63;8.10;;;0.50;93.80;;;;;;5128362;27;27383;-50
2021/01/26 04:00:43;;;;;;;13.82;8.32;;;0.50;93.90;;;;;;5128875;27;27318;-47
2021/01/26 04:03:50;;;;;;;13.93;7.80;;;0.50;93.90;;;;;;5128512;27;27370;-49
2021/01/26 04:06:45;;;;;;;11.88;8.05;;;0.50;94.00;;;;;;5128660;27;27537;-49
2021/01/26 04:09:35;;;;;;;13.15;8.40;;;0.50;94.00;;;;;;5126755;27;27449;-49
2021/01/26 04:12:22;;;;;;;13.13;7.78;;;0.50;94.10;;;;;;5127882;27;27382;-49
2021/01/26 04:15:09;;;;;;;12.80;8.13;;;0.50;94.20;;;;;;5127535;27;27339;-52
2021/01/26 04:17:54;;;;;;;12.32;8.05;;;0.50;94.10;;;;;;5127494;27;27427;-51
2021/01/26 04:20:38;;;;;;;14.15;8.35;;;0.60;94.20;;;;;;5128630;27;27445;-47
2021/01/26 04:23:24;;;;;;;15.73;8.38;;;0.50;94.20;;;;;;5128274;27;27397;-53
2021/01/26 04:26:12;;;;;;;14.60;7.72;;;0.60;94.30;;;;;;5127301;27;27436;-49
2021/01/26 04:28:57;;;;;;;16.50;9.23;;;0.60;94.30;;;;;;5128429;27;27445;-50
2021/01/26 04:31:41;;;;;;;11.18;7.28;;;0.60;94.40;;;;;;5127434;27;27508;-50
2021/01/26 04:34:26;;;;;;;11.95;7.90;;;0.60;94.30;;;;;;5128090;27;27387;-50
2021/01/26 04:37:11;;;;;;;12.80;7.47;;;0.60;94.30;;;;;;5125037;27;27416;-53
2021/01/26 04:39:55;;;;;;;13.85;7.85;;;0.60;94.30;;;;;;5128196;27;27406;-49
2021/01/26 04:42:40;;;;;;;13.68;8.15;;;0.60;94.30;;;;;;5128251;27;27428;-51
2021/01/26 04:45:55;;;;;;;12.98;7.88;;;0.60;94.30;;;;;;5128114;27;27464;-52
2021/01/26 04:49:18;;;;;;;10.95;7.03;;;0.70;94.40;;;;;;5127011;27;27487;-50
2021/01/26 04:52:15;;;;;;;11.45;7.15;;;0.60;94.30;;;;;;5127966;27;27461;-53
2021/01/26 04:55:10;;;;;;;14.70;7.20;;;0.70;94.40;;;;;;5124877;27;27488;-49
2021/01/26 04:58:02;;;;;;;13.43;7.82;;;0.70;94.70;;;;;;5124633;27;27511;-49
2021/01/26 05:01:12;;;;;;;14.35;8.10;;;0.70;94.30;;;;;;5127575;27;27394;-46
2021/01/26 05:04:00;;;;;;;12.60;7.40;;;0.70;94.30;;;;;;5126342;27;27427;-49
2021/01/26 05:06:57;;;;;;;15.85;7.93;;;0.70;94.30;;;;;;5127387;27;27474;-48
2021/01/26 05:09:54;;;;;;;11.70;7.25;;;0.70;94.30;;;;;;5126140;27;27624;-48
2021/01/26 05:13:02;;;;;;;12.63;7.75;;;0.70;94.30;;;;;;5127418;27;27460;-49
2021/01/26 05:15:50;;;;;;;11.13;7.10;;;0.80;94.30;;;;;;5127028;27;27425;-48
2021/01/26 05:19:19;;;;;;;11.63;7.00;;;0.80;94.40;;;;;;5127010;27;27335;-48
2021/01/26 05:22:19;;;;;;;11.02;6.85;;;0.70;94.30;;;;;;5123876;27;27571;-48
2021/01/26 05:25:12;;;;;;;12.77;6.93;;;0.80;94.30;;;;;;5127467;27;27414;-48
2021/01/26 05:27:56;;;;;;;12.43;7.50;;;0.80;94.30;;;;;;5123701;27;27398;-48
2021/01/26 05:30:41;;;;;;;11.40;7.32;;;0.80;94.30;;;;;;5127498;27;27421;-48
2021/01/26 05:33:25;;;;;;;11.38;6.97;;;0.80;94.40;;;;;;5127416;27;27379;-49
2021/01/26 05:36:10;;;;;;;13.35;8.00;;;0.80;94.30;;;;;;5126519;27;27471;-47
2021/01/26 05:38:54;;;;;;;11.25;6.97;;;0.80;94.40;;;;;;5123919;27;27473;-44
2021/01/26 05:41:38;;;;;;;12.40;6.93;;;0.80;94.30;;;;;;5127316;27;27472;-48
2021/01/26 05:44:23;;;;;;;13.02;6.80;;;0.80;94.30;;;;;;5127217;27;27320;-48
2021/01/26 05:47:26;;;;;;;14.07;7.18;;;0.80;94.40;;;;;;5126961;27;27382;-50
2021/01/26 05:50:24;;;;;;;11.25;6.72;;;0.80;94.40;;;;;;5126810;27;27312;-48
2021/01/26 05:53:27;;;;;;;11.32;6.75;;;0.80;94.40;;;;;;5126780;27;27481;-49
2021/01/26 05:56:14;;;;;;;13.00;6.93;;;0.80;94.40;;;;;;5126284;27;27360;-48
2021/01/26 05:58:58;;;;;;;10.35;6.57;;;0.80;94.40;;;;;;5126667;27;27499;-48
2021/01/26 06:01:43;;;;;;;12.05;7.05;;;0.80;94.40;;;;;;5111437;27;27320;-45
2021/01/26 06:04:34;;;;;;;12.00;7.05;;;0.80;94.40;;;;;;5122871;27;27417;-48
2021/01/26 06:07:21;;;;;;;10.95;6.70;;;0.90;94.40;;;;;;5125554;27;27406;-48
2021/01/26 06:10:21;;;;;;;10.27;6.50;;;0.90;94.40;;;;;;5125990;27;27661;-49
2021/01/26 06:13:05;;;;;;;14.05;7.20;;;0.90;94.30;;;;;;5126430;27;27461;-48
2021/01/26 06:15:49;;;;;;;11.52;6.32;;;0.90;94.40;;;;;;5126687;27;27418;-49
2021/01/26 06:18:34;;;;;;;9.30;6.38;;;0.90;94.30;;;;;;5124992;27;27484;-50
2021/01/26 06:21:19;;;;;;;10.30;6.65;;;0.90;94.30;;;;;;5126487;27;27406;-49
2021/01/26 06:24:14;;;;;;;11.88;6.75;;;0.90;94.30;;;;;;5107952;27;27520;-48
2021/01/26 06:27:22;;;;;;;10.15;6.70;;;0.90;94.40;;;;;;5126205;27;27469;-49
2021/01/26 06:30:13;;;;;;;10.05;5.90;;;0.90;94.40;;;;;;5126456;27;27435;-49
2021/01/26 06:33:04;;;;;;;9.90;6.32;;;0.90;94.40;;;;;;5126404;27;27393;-49
2021/01/26 06:35:52;;;;;;;10.93;6.15;;;0.90;94.40;;;;;;5125498;27;27487;-49
2021/01/26 06:38:50;;;;;;;9.68;6.40;;;0.90;94.40;;;;;;5122295;27;27327;-49
2021/01/26 06:41:50;;;;;;;11.50;6.38;;;1.00;94.50;;;;;;5126282;27;27453;-50
2021/01/26 06:45:13;;;;;;;9.75;6.13;;;0.90;94.40;;;;;;5126265;27;27377;-51
2021/01/26 06:48:03;;;;;;;10.52;5.70;;;0.90;94.40;;;;;;5125813;27;27461;-48
2021/01/26 06:50:48;;;;;;;9.18;6.07;;;1.00;94.50;;;;;;5125751;27;27389;-48
2021/01/26 06:53:47;;;;;;;9.70;6.13;;;1.00;94.40;;;;;;5126103;27;27383;-52
2021/01/26 06:56:59;;;;;;;9.68;6.35;;;0.90;94.40;;;;;;5125882;27;27465;-46
2021/01/26 06:59:52;;;;;;;11.30;5.95;;;1.00;94.30;;;;;;5125912;27;27469;-50
2021/01/26 07:03:05;;;;;;;9.50;6.00;;;1.00;94.40;;;;;;5125739;27;27401;-51
2021/01/26 07:06:46;;;;;;;8.68;5.00;;;1.00;94.30;;;;;;5124837;27;27348;-52
2021/01/26 07:09:55;;;;;;;14.98;6.38;;;1.00;94.30;;;;;;5121455;27;27525;-50
2021/01/26 07:13:00;;;;;;;8.23;5.40;;;0.90;94.40;;;;;;5123752;27;27554;-46
2021/01/26 07:16:06;;;;;;;12.07;6.10;;;1.00;94.40;;;;;;5123725;27;27419;-52
2021/01/26 07:19:21;;;;;;;10.00;6.00;;;1.00;94.40;;;;;;5124091;27;27373;-48
2021/01/26 07:22:47;;;;;;;11.95;6.13;;;1.00;94.40;;;;;;5123897;27;27965;-50
2021/01/26 07:25:54;;;;;;;11.48;6.45;;;1.00;94.40;;;;;;5123671;27;27469;-48
2021/01/26 07:29:09;;;;;;;13.63;6.38;;;1.00;94.40;;;;;;5123873;27;27539;-46
2021/01/26 07:32:16;;;;;;;9.98;6.10;;;1.00;94.30;;;;;;5123876;27;27430;-48
2021/01/26 07:35:27;;;;;;;10.27;5.38;;;1.00;94.30;;;;;;5123498;27;27513;-49
2021/01/26 07:38:13;;;;;;;10.43;5.78;;;1.00;94.30;;;;;;5120081;27;27456;-49
2021/01/26 07:41:01;;;;;;;8.77;5.32;;;1.00;94.30;;;;;;5125185;27;27331;-48
2021/01/26 07:44:03;;;;;;;11.23;6.05;;;1.00;94.30;;;;;;5124754;27;27402;-49
2021/01/26 07:47:08;;;;;;;11.88;6.00;;;1.00;94.30;;;;;;5125061;27;27392;-48
2021/01/26 07:50:10;;;;;;;9.20;5.35;;;1.00;94.30;;;;;;5125062;27;27366;-45
2021/01/26 07:52:59;;;;;;;9.38;5.82;;;1.00;94.20;;;;;;5124923;27;27351;-49
2021/01/26 07:56:06;;;;;;;7.10;5.22;;;1.00;94.20;;;;;;5124870;27;27461;-48
2021/01/26 07:58:51;;;;;;;9.70;4.82;;;1.00;94.20;;;;;;5124148;27;27872;-45
2021/01/26 08:01:44;;;;;;;8.13;4.90;;;1.10;94.20;;;;;;5106300;27;27460;-48
2021/01/26 08:04:29;;;;;;;13.40;6.43;;;1.10;94.20;;;;;;5124373;27;27485;-44
2021/01/26 08:07:26;;;;;;;7.07;5.07;;;1.10;94.20;;;;;;5124887;27;27444;-49
2021/01/26 08:10:19;;;;;;;8.70;5.35;;;1.10;94.10;;;;;;5124259;27;27982;-48
2021/01/26 08:13:04;;;;;;;7.72;5.38;;;1.10;94.10;;;;;;5120840;27;27472;-45
2021/01/26 08:15:49;;;;;;;7.15;5.35;;;1.10;94.00;;;;;;5123836;27;27428;-47
2021/01/26 08:18:33;;;;;;;6.63;4.60;;;1.10;94.00;;;;;;5123805;27;27312;-48
2021/01/26 08:21:33;;;;;;;8.95;4.82;;;1.10;93.90;;;;;;5123721;27;28036;-50
2021/01/26 08:24:20;;;;;;;9.05;4.75;;;1.10;93.90;;;;;;5124749;27;27421;-48
2021/01/26 08:27:37;;;;;;;7.55;4.65;;;1.10;93.90;;;;;;5124651;27;27393;-49
2021/01/26 08:30:49;;;;;;;9.07;5.53;;;1.20;93.90;;;;;;5124109;27;27323;-49
2021/01/26 08:33:34;;;;;;;9.30;5.45;;;1.20;93.90;;;;;;5124866;27;27848;-47
2021/01/26 08:36:27;;;;;;;11.80;5.05;;;1.20;93.80;;;;;;5121417;27;27348;-50
2021/01/26 08:39:15;;;;;;;9.07;4.80;;;1.20;93.90;;;;;;5123938;27;27623;-49
2021/01/26 08:41:59;;;;;;;7.88;4.90;;;1.20;93.90;;;;;;5125364;27;27369;-49
2021/01/26 08:44:45;;;;;;;12.25;5.70;;;1.20;94.00;;;;;;5128061;27;27370;-47
2021/01/26 08:47:48;;;;;;;11.23;4.70;;;1.20;94.00;;;;;;5127665;27;27416;-49
2021/01/26 08:51:07;;;;;;;9.75;5.22;;;1.20;94.00;;;;;;5127920;27;27415;-48
2021/01/26 08:53:52;;;;;;;9.98;5.00;;;1.20;94.00;;;;;;5123935;27;27358;-47
2021/01/26 08:56:38;;;;;;;9.45;5.18;;;1.20;93.90;;;;;;5127237;27;27349;-47
2021/01/26 08:59:29;;;;;;;8.45;4.78;;;1.20;93.90;;;;;;5126921;27;27343;-48
2021/01/26 09:02:36;;;;;;;10.10;5.68;;;1.20;93.90;;;;;;5126961;27;27371;-49
2021/01/26 09:05:39;;;;;;;10.90;5.28;;;1.30;93.90;;;;;;5127895;27;27311;-48
2021/01/26 09:08:41;;;;;;;13.30;4.88;;;1.30;94.00;;;;;;5127020;27;27477;-50
2021/01/26 09:11:37;;;;;;;9.70;4.88;;;1.30;94.00;;;;;;5127709;27;27481;-50
2021/01/26 09:14:32;;;;;;;9.73;4.72;;;1.30;94.00;;;;;;5126993;27;27512;-46
2021/01/26 09:17:35;;;;;;;8.25;4.82;;;1.30;94.00;;;;;;5126609;27;27492;-47
2021/01/26 09:20:23;;;;;;;8.05;4.00;;;1.30;94.00;;;;;;5126789;27;27468;-48
2021/01/26 09:23:09;;;;;;;11.77;4.78;;;1.30;94.00;;;;;;5127191;27;27427;-49
2021/01/26 09:25:53;;;;;;;11.32;5.30;;;1.40;94.00;;;;;;5126526;27;27403;-50
2021/01/26 09:28:39;;;;;;;9.25;4.75;;;1.30;93.90;;;;;;5127522;27;27460;-48
2021/01/26 09:31:25;;;;;;;9.57;4.50;;;1.30;93.90;;;;;;5127408;27;27123;-48
2021/01/26 09:34:10;;;;;;;7.75;4.10;;;1.40;93.90;;;;;;5126633;27;27474;-49
2021/01/26 09:37:13;;;;;;;8.38;4.57;;;1.40;93.90;;;;;;5127261;27;26899;-50
2021/01/26 09:40:09;;;;;;;6.70;4.50;;;1.40;93.90;;;;;;5126911;27;27406;-49
2021/01/26 09:43:14;;;;;;;7.18;4.45;;;1.40;93.90;;;;;;5126763;27;27976;-50
2021/01/26 09:46:00;;;;;;;7.38;4.07;;;1.40;93.90;;;;;;5127095;27;27413;-50
2021/01/26 09:48:48;;;;;;;7.70;4.22;;;1.40;93.90;;;;;;5126041;27;27351;-47
2021/01/26 09:51:41;;;;;;;7.70;4.00;;;1.40;93.90;;;;;;5112494;27;26919;-49
2021/01/26 09:54:30;;;;;;;6.60;4.38;;;1.50;93.90;;;;;;5124939;27;27404;-50
2021/01/26 09:57:16;;;;;;;8.10;3.72;;;1.50;93.90;;;;;;5126519;27;27468;-49
2021/01/26 10:00:00;;;;;;;9.05;4.30;;;1.50;93.90;;;;;;5122811;27;27468;-48
2021/01/26 10:02:45;;;;;;;5.93;3.28;;;1.50;93.90;;;;;;5125448;27;27468;-49
2021/01/26 10:05:30;;;;;;;4.95;3.42;;;1.50;93.90;;;;;;5125721;27;27457;-51
2021/01/26 10:08:20;;;;;;;6.35;3.17;;;1.50;93.90;;;;;;5126442;27;27500;-49
2021/01/26 10:11:09;;;;;;;11.98;3.95;;;1.60;93.90;;;;;;5126816;27;27389;-49
2021/01/26 10:14:20;;;;;;;7.07;3.67;;;1.50;93.90;;;;;;5126757;27;27415;-49
2021/01/26 10:17:10;;;;;;;6.63;4.30;;;1.60;93.90;;;;;;5126035;27;27345;-47
2021/01/26 10:19:56;;;;;;;8.90;4.57;;;1.60;93.90;;;;;;5110749;27;27414;-48
2021/01/26 10:22:40;;;;;;;8.07;4.60;;;1.60;93.90;;;;;;5126739;27;27453;-52
2021/01/26 10:25:25;;;;;;;7.15;3.97;;;1.60;93.80;;;;;;5125597;27;27453;-47
2021/01/26 10:28:14;;;;;;;8.95;4.88;;;1.70;93.70;;;;;;5125617;27;27966;-50
2021/01/26 10:30:59;;;;;;;8.68;4.47;;;1.70;93.70;;;;;;5126222;27;27428;-48
2021/01/26 10:33:43;;;;;;;7.32;3.92;;;1.70;93.60;;;;;;5111055;27;27424;-48
2021/01/26 10:36:28;;;;;;;10.57;4.32;;;1.70;93.60;;;;;;5126402;27;27395;-45
2021/01/26 10:39:26;;;;;;;6.90;3.90;;;1.70;93.70;;;;;;5126359;27;27875;-48
2021/01/26 10:42:22;;;;;;;6.43;3.85;;;1.70;93.50;;;;;;5122698;27;27386;-48
2021/01/26 10:45:07;;;;;;;6.93;3.65;;;1.80;93.60;;;;;;5125386;27;27421;-49
2021/01/26 10:47:52;;;;;;;6.75;3.53;;;1.80;93.50;;;;;;5126037;27;27431;-47
2021/01/26 10:50:36;;;;;;;5.40;3.33;;;1.80;93.40;;;;;;5110734;27;27403;-48
2021/01/26 10:53:42;;;;;;;6.13;3.20;;;1.80;93.40;;;;;;5125897;27;27340;-47
2021/01/26 10:56:26;;;;;;;6.57;3.75;;;1.80;93.40;;;;;;5125425;27;27360;-46
2021/01/26 10:59:11;;;;;;;9.05;3.42;;;1.90;93.40;;;;;;5126096;27;27448;-48
2021/01/26 11:01:56;;;;;;;5.78;3.15;;;1.90;93.40;;;;;;5125941;27;27409;-47
2021/01/26 11:04:40;;;;;;;5.78;3.33;;;2.00;93.20;;;;;;5125299;27;27331;-46
2021/01/26 11:07:24;;;;;;;6.68;3.13;;;2.00;93.00;;;;;;5125574;27;27440;-48
2021/01/26 11:10:10;;;;;;;5.43;2.80;;;2.10;92.90;;;;;;5124826;27;27412;-49
2021/01/26 11:12:54;;;;;;;6.10;3.00;;;2.20;92.80;;;;;;5125772;27;27404;-48
2021/01/26 11:15:39;;;;;;;4.00;2.47;;;2.20;92.70;;;;;;5125463;27;27440;-47
2021/01/26 11:18:23;;;;;;;3.78;2.25;;;2.30;92.60;;;;;;5124797;27;27464;-50
2021/01/26 11:21:08;;;;;;;4.43;2.75;;;2.30;92.60;;;;;;5122389;27;27402;-48
2021/01/26 11:23:53;;;;;;;3.95;2.20;;;2.30;92.40;;;;;;5124788;27;27426;-48
2021/01/26 11:26:38;;;;;;;5.32;2.30;;;2.30;92.30;;;;;;5125399;27;27432;-52
2021/01/26 11:29:22;;;;;;;3.47;2.17;;;2.40;92.30;;;;;;5125666;27;27411;-49
2021/01/26 11:32:07;;;;;;;5.70;2.45;;;2.40;92.20;;;;;;5125601;27;27395;-50
2021/01/26 11:34:51;;;;;;;4.25;2.15;;;2.40;92.20;;;;;;5125564;27;27410;-49
2021/01/26 11:37:36;;;;;;;8.23;2.42;;;2.40;92.30;;;;;;5125651;27;27484;-49
2021/01/26 11:40:21;;;;;;;5.15;2.45;;;2.40;92.20;;;;;;5125938;27;27457;-48
2021/01/26 11:43:05;;;;;;;3.08;1.88;;;2.40;92.30;;;;;;5125455;27;27464;-49
2021/01/26 11:45:50;;;;;;;3.17;1.83;;;2.40;92.40;;;;;;5120970;27;27968;-48
2021/01/26 11:48:34;;;;;;;5.15;2.10;;;2.50;92.40;;;;;;5125019;27;27407;-49
2021/01/26 11:51:19;;;;;;;3.40;2.13;;;2.50;92.50;;;;;;5124925;27;27465;-49
2021/01/26 11:54:04;;;;;;;4.90;2.17;;;2.50;92.60;;;;;;5125156;27;27369;-50
2021/01/26 11:56:48;;;;;;;3.05;1.90;;;2.50;92.70;;;;;;5124942;27;27875;-49
2021/01/26 11:59:33;;;;;;;5.70;2.38;;;2.50;92.70;;;;;;5124979;27;27502;-48
2021/01/26 12:02:18;;;;;;;6.22;2.47;;;2.50;92.70;;;;;;5125008;27;27437;-48
2021/01/26 12:05:03;;;;;;;4.05;2.15;;;2.50;92.60;;;;;;5124931;27;27362;-48
2021/01/26 12:07:48;;;;;;;6.22;2.00;;;2.60;92.50;;;;;;5124628;27;27339;-47
2021/01/26 12:10:33;;;;;;;4.10;1.90;;;2.60;92.40;;;;;;5122543;27;27370;-48
2021/01/26 12:13:18;;;;;;;9.50;3.13;;;2.70;92.40;;;;;;5124146;27;27398;-47
2021/01/26 12:16:03;;;;;;;4.72;1.92;;;2.70;92.20;;;;;;5121529;27;27381;-48
2021/01/26 12:18:47;;;;;;;5.65;2.15;;;2.70;91.70;;;;;;5126760;27;27399;-48
2021/01/26 12:21:32;;;;;;;7.45;2.33;;;2.80;91.30;;;;;;5128298;27;27425;-48
2021/01/26 12:24:16;;;;;;;4.53;2.10;;;2.80;91.10;;;;;;5128335;27;27400;-46
2021/01/26 12:27:01;;;;;;;8.65;2.28;;;2.80;91.00;;;;;;5128178;27;27372;-49
2021/01/26 12:29:45;;;;;;;3.72;1.75;;;2.80;91.00;;;;;;5128416;27;27357;-48
2021/01/26 12:32:30;;;;;;;5.20;1.80;;;2.80;90.80;;;;;;5128193;27;27349;-49
2021/01/26 12:35:23;;;;;;;4.72;2.00;;;2.90;90.60;;;;;;5128376;27;27300;-48
2021/01/26 12:38:08;;;;;;;5.30;2.00;;;2.80;91.10;;;;;;5128072;27;27445;-48
2021/01/26 12:40:53;;;;;;;4.25;2.20;;;2.80;90.90;;;;;;5128201;27;27456;-48
2021/01/26 12:43:37;;;;;;;3.97;2.33;;;2.80;90.90;;;;;;5127885;27;27418;-47
2021/01/26 12:46:21;;;;;;;4.63;2.33;;;2.80;90.90;;;;;;5127476;27;27446;-49
2021/01/26 12:49:06;;;;;;;4.30;2.15;;;2.80;91.10;;;;;;5127859;27;27453;-47
2021/01/26 12:51:51;;;;;;;7.78;2.10;;;2.80;91.40;;;;;;5127028;27;27414;-50
2021/01/26 12:54:35;;;;;;;7.22;3.05;;;2.80;91.40;;;;;;5127056;27;27426;-47
2021/01/26 12:57:20;;;;;;;4.82;1.90;;;2.80;91.50;;;;;;5127785;27;27457;-48
2021/01/26 13:00:06;;;;;;;4.82;2.15;;;2.80;91.60;;;;;;5127643;27;27430;-49
2021/01/26 13:02:52;;;;;;;2.40;1.73;;;2.80;91.70;;;;;;5127637;27;27413;-50
2021/01/26 13:05:37;;;;;;;4.88;2.17;;;2.80;91.70;;;;;;5126817;27;27536;-50
2021/01/26 13:08:22;;;;;;;5.68;1.77;;;2.80;91.70;;;;;;5127560;27;27379;-49
2021/01/26 13:11:08;;;;;;;4.82;2.17;;;2.80;91.60;;;;;;5127567;27;27402;-50
2021/01/26 13:13:52;;;;;;;5.80;2.30;;;2.80;91.60;;;;;;5126880;27;27863;-47
2021/01/26 13:16:38;;;;;;;6.43;2.10;;;2.90;91.60;;;;;;5127644;27;27437;-48
2021/01/26 13:19:23;;;;;;;6.53;2.17;;;2.90;91.60;;;;;;5127291;27;27472;-48
2021/01/26 13:22:08;;;;;;;3.58;2.10;;;2.90;91.60;;;;;;5127365;27;27460;-48
2021/01/26 13:24:53;;;;;;;5.30;2.65;;;2.90;91.50;;;;;;5127265;27;27419;-48
2021/01/26 13:27:38;;;;;;;10.55;2.53;;;2.90;91.50;;;;;;5126824;27;27437;-48
2021/01/26 13:30:23;;;;;;;7.38;1.98;;;3.00;91.40;;;;;;5123391;27;27399;-47
2021/01/26 13:33:09;;;;;;;5.75;2.05;;;3.00;91.30;;;;;;5127356;27;27450;-49
2021/01/26 13:35:53;;;;;;;4.35;2.00;;;3.00;91.10;;;;;;5127066;27;27473;-47
2021/01/26 13:38:39;;;;;;;4.85;1.88;;;3.00;90.80;;;;;;5126077;27;27469;-49
2021/01/26 13:41:23;;;;;;;3.20;1.92;;;3.10;90.40;;;;;;5127189;27;27481;-48
2021/01/26 13:44:08;;;;;;;3.88;2.10;;;3.10;90.00;;;;;;5127207;27;27402;-47
2021/01/26 13:46:53;;;;;;;5.68;1.80;;;3.10;89.90;;;;;;5127088;27;27533;-48
2021/01/26 13:49:38;;;;;;;3.03;1.77;;;3.10;89.70;;;;;;5126969;27;27472;-47
2021/01/26 13:52:22;;;;;;;5.93;1.80;;;3.10;89.70;;;;;;5126995;27;27446;-49
2021/01/26 13:55:08;;;;;;;5.20;1.90;;;3.10;89.70;;;;;;5127117;27;27463;-50
2021/01/26 13:57:53;;;;;;;5.68;2.22;;;3.10;89.70;;;;;;5126734;27;28003;-48
2021/01/26 14:00:38;;;;;;;8.48;2.50;;;3.10;89.70;;;;;;5126781;27;27469;-49
2021/01/26 14:03:23;;;;;;;3.03;1.90;;;3.10;89.90;;;;;;5126793;27;27468;-48
2021/01/26 14:06:08;;;;;;;4.75;2.25;;;3.10;89.90;;;;;;5126946;27;27441;-48
2021/01/26 14:08:53;;;;;;;7.28;2.58;;;3.10;89.90;;;;;;5125806;27;27431;-48
2021/01/26 14:11:38;;;;;;;5.88;2.53;;;3.10;90.00;;;;;;5126732;27;27472;-48
2021/01/26 14:14:23;;;;;;;3.95;2.28;;;3.10;90.00;;;;;;5126554;27;27449;-47
2021/01/26 14:17:08;;;;;;;3.72;2.33;;;3.10;90.00;;;;;;5126537;27;27481;-48
2021/01/26 14:19:52;;;;;;;8.90;2.72;;;3.10;90.00;;;;;;5125709;27;27396;-47
2021/01/26 14:22:37;;;;;;;6.32;2.33;;;3.10;90.00;;;;;;5126574;27;27458;-49
2021/01/26 14:25:21;;;;;;;2.90;2.17;;;3.10;89.90;;;;;;5126343;27;27469;-49
2021/01/26 14:28:06;;;;;;;4.78;2.33;;;3.10;89.90;;;;;;5126245;27;27533;-48
2021/01/26 14:30:50;;;;;;;3.80;2.67;;;3.10;90.00;;;;;;5126181;27;27876;-48
2021/01/26 14:33:35;;;;;;;7.10;2.85;;;3.10;89.90;;;;;;5126177;27;27521;-47
2021/01/26 14:36:19;;;;;;;3.38;2.20;;;3.10;90.00;;;;;;5125975;27;27417;-50
2021/01/26 14:39:04;;;;;;;9.20;2.50;;;3.10;89.90;;;;;;5126057;27;27320;-50
2021/01/26 14:41:49;;;;;;;5.53;2.35;;;3.10;89.90;;;;;;5126199;27;27397;-48
2021/01/26 14:44:33;;;;;;;4.70;3.72;;;3.10;89.70;;;;;;5126172;27;27421;-50
2021/01/26 14:47:18;;;;;;;4.15;2.28;;;3.10;89.60;;;;;;5125745;27;27333;-48
2021/01/26 14:50:08;;;;;;;2.92;2.10;;;3.10;89.80;;;;;;5126285;27;27364;-50
2021/01/26 14:52:52;;;;;;;4.47;2.30;;;3.10;89.60;;;;;;5125869;27;27350;-49